Time;durP1;ratioP1;P1;durP2;ratioP2;P2;SDS_P1;SDS_P2;PMS_P1;PMS_P2;Temp;Humidity;BMP_temperature;BMP_pressure;BME280_temperature;BME280_humidity;BME280_pressure;Samples;Min_cycle;Max_cycle;Signal;HPM_P1;HPM_P2
2023/05/10 00:00:49;;;;;;;3.00;2.20;;;;;;;8.60;67.76;97384.44;6241519;28;20241;-91
2023/05/10 00:03:52;;;;;;;4.97;2.90;;;;;;;8.40;65.84;97313.19;6223147;28;20237;-92
2023/05/10 00:06:54;;;;;;;3.30;3.00;;;;;;;9.47;66.02;97497.66;6223668;28;20616;-91
2023/05/10 00:09:57;;;;;;;4.20;3.03;;;;;;;7.96;66.96;97277.53;6239840;28;20227;-91
2023/05/10 00:12:59;;;;;;;3.63;2.50;;;;;;;9.41;67.67;97494.09;6238014;28;20238;-91
2023/05/10 00:16:01;;;;;;;3.43;2.83;;;;;;;9.31;67.80;97525.81;6239616;28;20313;-91
2023/05/10 00:19:04;;;;;;;3.10;2.40;;;;;;;7.87;68.11;97270.97;6222672;28;20222;-92
2023/05/10 00:22:06;;;;;;;2.53;2.33;;;;;;;9.21;68.21;97497.19;6220933;28;20226;-92
2023/05/10 00:25:10;;;;;;;6.23;3.00;;;;;;;9.76;67.56;97555.09;6238403;28;20321;-91
2023/05/10 00:28:12;;;;;;;5.03;2.87;;;;;;;9.02;66.52;97430.16;6222728;28;20246;-91
2023/05/10 00:31:14;;;;;;;3.30;2.63;;;;;;;8.72;67.97;97366.63;6222543;28;20237;-92
2023/05/10 00:34:17;;;;;;;3.40;2.70;;;;;;;9.98;67.30;97565.03;6227025;28;20241;-91
2023/05/10 00:37:19;;;;;;;2.93;2.67;;;;;;;8.00;67.91;97294.59;6221970;28;20237;-91
2023/05/10 00:40:21;;;;;;;3.13;2.77;;;;;;;9.44;68.38;97490.94;6238652;28;20241;-92
2023/05/10 00:43:28;;;;;;;4.70;3.37;;;;;;;9.25;68.03;97469.06;6217329;28;20241;-91
2023/05/10 00:46:31;;;;;;;3.40;3.10;;;;;;;9.47;68.58;97501.13;6238114;28;20240;-91
2023/05/10 00:49:35;;;;;;;4.23;2.77;;;;;;;9.73;68.17;97547.59;6237645;28;20267;-91
2023/05/10 00:52:37;;;;;;;5.07;2.90;;;;;;;9.32;67.23;97473.47;6238463;28;20627;-92
2023/05/10 00:55:40;;;;;;;3.90;2.73;;;;;;;7.59;67.73;97186.91;6220928;28;20238;-90
2023/05/10 00:58:43;;;;;;;3.30;3.00;;;;;;;9.71;68.04;97530.25;6222535;28;20234;-91
2023/05/10 01:01:46;;;;;;;4.47;3.30;;;;;;;9.37;68.29;97495.63;6233784;28;20320;-91
2023/05/10 01:04:49;;;;;;;4.20;2.77;;;;;;;8.92;68.29;97408.72;6237840;28;20346;-93
2023/05/10 01:07:51;;;;;;;7.47;3.30;;;;;;;8.04;65.70;97229.44;6236963;28;20233;-92
2023/05/10 01:10:55;;;;;;;4.17;2.60;;;;;;;9.32;66.68;97433.59;6236604;28;20237;-91
2023/05/10 01:13:58;;;;;;;3.43;2.87;;;;;;;9.60;66.86;97507.19;6221416;28;20224;-92
2023/05/10 01:17:01;;;;;;;5.20;3.17;;;;;;;9.00;66.59;97405.66;6237697;28;20237;-92
2023/05/10 01:20:04;;;;;;;5.47;3.03;;;;;;;9.13;67.19;97422.34;6236676;28;20266;-91
2023/05/10 01:23:32;;;;;;;4.13;2.50;;;;;;;9.70;67.13;97513.47;6232984;28;20241;-91
2023/05/10 01:27:05;;;;;;;4.30;2.90;;;;;;;8.78;67.21;97376.31;6219195;28;20225;-91
2023/05/10 01:30:22;;;;;;;3.20;2.90;;;;;;;9.60;67.50;97507.19;6217701;28;20218;-90
2023/05/10 01:33:44;;;;;;;5.77;2.77;;;;;;;9.38;67.95;97488.44;6233599;28;20311;-90
2023/05/10 01:37:00;;;;;;;3.10;2.80;;;;;;;9.04;68.05;97446.66;6215842;28;20683;-91
2023/05/10 01:40:10;;;;;;;3.20;2.60;;;;;;;9.28;68.38;97489.88;6236888;28;20329;-90
2023/05/10 01:43:22;;;;;;;3.43;3.10;;;;;;;8.72;67.94;97425.06;6233440;28;20237;-91
2023/05/10 01:46:37;;;;;;;3.47;2.93;;;;;;;9.24;68.93;97493.25;6236607;28;20241;-90
2023/05/10 01:49:47;;;;;;;3.13;2.40;;;;;;;9.14;69.66;97495.72;6247883;28;20237;-90
2023/05/10 01:52:56;;;;;;;2.93;2.57;;;;;;;8.30;69.44;97387.28;6223565;28;20228;-90
2023/05/10 01:56:00;;;;;;;3.53;3.17;;;;;;;8.75;69.27;97443.16;6231321;28;20233;-90
2023/05/10 01:59:06;;;;;;;4.00;2.90;;;;;;;8.54;69.32;97427.88;6221134;28;20229;-91
2023/05/10 02:02:11;;;;;;;2.73;2.53;;;;;;;8.36;70.06;97396.97;6235616;28;20239;-91
2023/05/10 02:05:16;;;;;;;3.87;2.63;;;;;;;8.51;70.13;97415.06;6236421;28;20232;-91
2023/05/10 02:08:20;;;;;;;2.63;2.37;;;;;;;8.62;70.46;97447.94;6235206;28;20246;-91
2023/05/10 02:11:23;;;;;;;3.63;2.67;;;;;;;8.79;70.56;97484.16;6218746;28;20223;-91
2023/05/10 02:14:27;;;;;;;3.27;2.87;;;;;;;6.89;70.94;97238.88;6236918;28;20633;-91
2023/05/10 02:17:32;;;;;;;5.87;3.00;;;;;;;8.12;71.46;97405.97;6236057;28;20235;-91
2023/05/10 02:20:35;;;;;;;3.03;2.73;;;;;;;8.22;71.53;97417.63;6219942;28;20302;-90
2023/05/10 02:23:38;;;;;;;2.90;2.60;;;;;;;8.61;71.54;97476.34;6233985;28;20244;-91
2023/05/10 02:26:41;;;;;;;3.53;2.83;;;;;;;6.20;71.77;97123.97;6235475;28;20241;-91
2023/05/10 02:29:46;;;;;;;6.03;3.27;;;;;;;7.80;71.96;97371.88;6236519;28;20233;-91
2023/05/10 02:32:51;;;;;;;3.73;2.93;;;;;;;8.32;72.16;97453.38;6218953;28;20301;-91
2023/05/10 02:35:54;;;;;;;5.23;3.20;;;;;;;8.01;72.67;97428.84;6253204;28;20237;-91
2023/05/10 02:38:58;;;;;;;5.83;3.03;;;;;;;6.30;72.61;97174.47;6218641;28;20242;-91
2023/05/10 02:42:02;;;;;;;3.10;2.80;;;;;;;5.94;72.77;97133.13;6213557;28;20798;-92
2023/05/10 02:45:15;;;;;;;3.23;2.93;;;;;;;5.63;73.49;97128.84;6224100;28;20231;-90
2023/05/10 02:48:17;;;;;;;3.20;2.90;;;;;;;7.50;73.65;97411.75;6214857;28;20242;-90
2023/05/10 02:51:24;;;;;;;3.50;2.90;;;;;;;6.92;73.82;97323.19;6233288;28;20208;-91
2023/05/10 02:54:33;;;;;;;2.80;2.50;;;;;;;7.01;73.64;97373.19;6230930;28;20254;-91
2023/05/10 02:57:43;;;;;;;3.40;3.00;;;;;;;6.93;74.23;97340.69;6219649;28;20227;-91
2023/05/10 03:00:46;;;;;;;5.43;3.30;;;;;;;6.45;74.24;97286.00;6234856;28;20235;-91
2023/05/10 03:03:48;;;;;;;3.20;2.87;;;;;;;7.28;75.25;97411.47;6218215;28;20384;-91
2023/05/10 03:06:51;;;;;;;3.57;2.90;;;;;;;7.11;75.00;97408.66;6235462;28;20605;-91
2023/05/10 03:09:54;;;;;;;3.60;3.10;;;;;;;6.92;75.40;97391.22;6233485;28;20318;-90
2023/05/10 03:13:19;;;;;;;3.90;3.10;;;;;;;7.03;75.82;97406.34;6219039;28;20630;-91
2023/05/10 03:16:34;;;;;;;5.50;3.30;;;;;;;7.47;76.01;97473.16;6212792;28;20609;-91
2023/05/10 03:19:43;;;;;;;4.20;3.00;;;;;;;7.46;76.22;97468.91;6215660;28;20366;-91
2023/05/10 03:22:55;;;;;;;6.17;3.77;;;;;;;5.62;75.93;97198.56;6235042;28;20313;-91
2023/05/10 03:26:00;;;;;;;3.27;2.97;;;;;;;7.15;76.45;97436.31;6239835;28;20322;-91
2023/05/10 03:29:06;;;;;;;4.47;3.50;;;;;;;7.10;77.07;97416.84;6240612;28;20241;-91
2023/05/10 03:32:08;;;;;;;2.80;2.50;;;;;;;5.54;76.67;97196.22;6239776;28;20231;-91
2023/05/10 03:35:15;;;;;;;5.03;3.30;;;;;;;5.65;76.56;97208.69;6226316;28;20234;-90
2023/05/10 03:38:18;;;;;;;3.37;2.90;;;;;;;6.57;76.69;97340.81;6246373;28;20243;-90
2023/05/10 03:41:21;;;;;;;5.10;3.10;;;;;;;7.50;76.63;97486.78;6234834;28;20238;-91
2023/05/10 03:44:24;;;;;;;3.20;2.73;;;;;;;6.21;76.34;97276.38;6218372;28;20227;-91
2023/05/10 03:47:26;;;;;;;3.57;3.10;;;;;;;5.56;76.75;97176.47;6231273;28;20313;-91
2023/05/10 03:50:28;;;;;;;3.47;3.10;;;;;;;6.02;76.46;97275.56;6233971;28;20261;-91
2023/05/10 03:53:31;;;;;;;7.00;3.30;;;;;;;5.63;76.76;97202.81;6233348;28;20243;-91
2023/05/10 03:56:34;;;;;;;4.67;3.00;;;;;;;5.55;76.46;97200.47;6234897;28;20608;-91
2023/05/10 03:59:36;;;;;;;3.63;3.13;;;;;;;6.51;76.15;97349.66;6231985;28;20711;-90
2023/05/10 04:02:39;;;;;;;4.83;2.83;;;;;;;6.67;76.50;97378.94;6236481;28;20242;-90
2023/05/10 04:05:45;;;;;;;3.67;2.87;;;;;;;7.37;77.16;97494.91;6234860;28;20413;-90
2023/05/10 04:08:47;;;;;;;3.43;3.13;;;;;;;6.91;77.00;97422.19;6234013;28;20234;-91
2023/05/10 04:11:49;;;;;;;4.60;3.03;;;;;;;6.80;77.21;97436.19;6218872;28;20276;-90
2023/05/10 04:14:51;;;;;;;4.20;2.90;;;;;;;7.30;77.66;97502.16;6233415;28;20227;-90
2023/05/10 04:17:54;;;;;;;4.87;2.80;;;;;;;7.27;77.98;97497.28;6216681;28;20230;-90
2023/05/10 04:20:56;;;;;;;3.23;2.70;;;;;;;7.26;78.17;97500.19;6234601;28;20227;-91
2023/05/10 04:23:58;;;;;;;3.53;2.90;;;;;;;6.10;77.95;97332.63;6231786;28;20638;-90
2023/05/10 04:27:00;;;;;;;3.30;2.80;;;;;;;6.44;78.51;97366.38;6233960;28;20623;-90
2023/05/10 04:30:03;;;;;;;3.33;2.50;;;;;;;6.73;78.48;97417.72;6211292;28;20232;-91
2023/05/10 04:33:06;;;;;;;3.43;2.93;;;;;;;7.31;78.15;97510.91;6234789;28;20226;-90
2023/05/10 04:36:08;;;;;;;4.60;3.03;;;;;;;6.82;79.03;97450.00;6221599;28;20285;-91
2023/05/10 04:39:10;;;;;;;4.47;3.20;;;;;;;6.31;78.88;97379.00;6221420;28;20222;-90
2023/05/10 04:42:14;;;;;;;6.20;2.80;;;;;;;5.86;78.65;97308.69;6234637;28;20213;-91
2023/05/10 04:45:17;;;;;;;4.83;3.03;;;;;;;5.01;79.23;97136.88;6220076;28;20218;-90
2023/05/10 04:48:19;;;;;;;2.93;2.60;;;;;;;5.26;79.11;97186.97;6214489;28;20888;-90
2023/05/10 04:51:21;;;;;;;4.03;2.90;;;;;;;7.32;79.46;97515.97;6237729;28;20287;-92
2023/05/10 04:54:23;;;;;;;4.30;2.80;;;;;;;7.37;79.88;97505.50;6238644;28;20749;-92
2023/05/10 04:57:25;;;;;;;3.77;3.20;;;;;;;6.78;80.30;97410.97;6236561;28;20226;-89
2023/05/10 05:00:28;;;;;;;3.70;3.33;;;;;;;7.54;80.64;97508.34;6220766;28;20231;-92
2023/05/10 05:03:30;;;;;;;4.33;2.83;;;;;;;6.74;80.31;97376.19;6237933;28;20250;-90
2023/05/10 05:06:32;;;;;;;3.80;3.23;;;;;;;7.24;80.34;97464.13;6255245;28;20321;-90
2023/05/10 05:09:35;;;;;;;3.83;3.13;;;;;;;6.98;80.47;97385.00;6237780;28;20234;-90
2023/05/10 05:12:37;;;;;;;3.20;2.90;;;;;;;7.07;78.24;97354.53;6237179;28;20300;-91
2023/05/10 05:15:39;;;;;;;4.17;3.70;;;;;;;7.53;78.26;97381.31;6221750;28;20442;-90
2023/05/10 05:18:41;;;;;;;4.07;3.03;;;;;;;6.40;76.81;97197.72;6237907;28;20244;-90
2023/05/10 05:21:44;;;;;;;4.60;3.30;;;;;;;5.54;75.90;97020.03;6217485;28;21083;-91
2023/05/10 05:24:47;;;;;;;4.10;3.33;;;;;;;8.51;75.09;97449.56;6229422;28;20246;-90
2023/05/10 05:27:49;;;;;;;4.27;3.37;;;;;;;8.66;74.60;97462.34;6230016;28;20280;-90
2023/05/10 05:30:52;;;;;;;3.87;3.43;;;;;;;8.10;74.69;97360.31;6221075;28;20245;-90
2023/05/10 05:33:55;;;;;;;4.77;3.37;;;;;;;8.52;74.58;97398.09;6214933;28;20676;-90
2023/05/10 05:36:57;;;;;;;5.27;4.00;;;;;;;8.87;70.58;97429.88;6221241;28;20234;-91
2023/05/10 05:40:01;;;;;;;3.53;3.23;;;;;;;7.67;71.75;97221.00;6212802;28;20233;-92
2023/05/10 05:43:04;;;;;;;5.07;3.50;;;;;;;7.73;69.72;97201.50;6219595;28;20247;-90
2023/05/10 05:46:06;;;;;;;3.60;3.20;;;;;;;8.24;71.29;97251.03;6221121;28;20235;-90
2023/05/10 05:49:08;;;;;;;4.00;3.13;;;;;;;9.73;70.89;97467.78;6236220;28;20233;-91
2023/05/10 05:52:11;;;;;;;5.07;3.27;;;;;;;9.45;70.57;97412.78;6236583;28;20371;-91
2023/05/10 05:55:13;;;;;;;4.10;3.10;;;;;;;10.17;71.23;97520.38;6237472;28;20314;-91
2023/05/10 05:58:16;;;;;;;4.20;3.70;;;;;;;9.38;70.17;97398.88;6237255;28;20259;-90
2023/05/10 06:01:18;;;;;;;7.27;3.40;;;;;;;9.87;70.64;97444.34;6236946;28;20260;-91
2023/05/10 06:04:21;;;;;;;8.33;3.77;;;;;;;9.47;69.74;97367.38;6236018;28;20229;-91
2023/05/10 06:07:23;;;;;;;3.83;3.30;;;;;;;9.79;68.92;97407.47;6219204;28;20226;-91
2023/05/10 06:10:26;;;;;;;5.37;3.83;;;;;;;10.73;68.77;97524.66;6236849;28;20238;-91
2023/05/10 06:13:31;;;;;;;5.67;3.70;;;;;;;10.55;66.85;97472.50;6237245;28;20236;-91
2023/05/10 06:16:35;;;;;;;4.17;3.10;;;;;;;9.41;66.62;97254.84;6237169;28;20273;-91
2023/05/10 06:19:37;;;;;;;4.43;3.00;;;;;;;9.55;66.48;97264.03;6236738;28;20271;-90
2023/05/10 06:22:39;;;;;;;6.03;3.13;;;;;;;11.34;66.98;97524.59;6218464;28;20299;-91
2023/05/10 06:25:42;;;;;;;3.20;2.80;;;;;;;11.02;66.39;97479.16;6236718;28;20241;-91
2023/05/10 06:28:44;;;;;;;4.80;2.93;;;;;;;9.81;66.94;97257.22;6230235;28;20600;-91
2023/05/10 06:31:47;;;;;;;3.60;3.03;;;;;;;11.78;63.29;97553.88;6221607;28;20237;-91
2023/05/10 06:34:50;;;;;;;5.67;2.93;;;;;;;9.87;65.36;97226.16;6213152;28;20226;-91
2023/05/10 06:37:53;;;;;;;5.13;2.97;;;;;;;10.23;62.31;97245.19;6220050;28;20242;-91
2023/05/10 06:40:55;;;;;;;3.23;2.90;;;;;;;10.71;57.50;97214.25;6237861;28;20234;-91
2023/05/10 06:43:57;;;;;;;3.40;2.43;;;;;;;9.36;59.86;96998.75;6237670;28;20245;-91
2023/05/10 06:47:00;;;;;;;3.13;2.53;;;;;;;10.20;59.21;97145.34;6234584;28;20231;-91
2023/05/10 06:50:03;;;;;;;3.57;2.40;;;;;;;11.77;59.16;97360.09;6239978;28;20235;-91
2023/05/10 06:53:05;;;;;;;3.77;2.17;;;;;;;10.00;58.05;97065.31;6238647;28;20233;-91
2023/05/10 06:56:08;;;;;;;3.47;2.40;;;;;;;12.63;57.93;97463.97;6240184;28;20227;-92
2023/05/10 06:59:10;;;;;;;2.53;2.33;;;;;;;11.40;54.55;97266.75;6223249;28;20230;-92
2023/05/10 07:02:14;;;;;;;4.77;2.30;;;;;;;12.63;55.36;97446.06;6237538;28;20234;-92
2023/05/10 07:05:19;;;;;;;3.37;2.33;;;;;;;11.97;56.43;97306.06;6242651;28;20366;-92
2023/05/10 07:08:22;;;;;;;3.63;2.20;;;;;;;13.04;52.97;97440.06;6222294;28;20227;-92
2023/05/10 07:11:24;;;;;;;4.40;2.43;;;;;;;13.11;54.63;97433.41;6231670;28;20233;-92
2023/05/10 07:14:28;;;;;;;3.23;2.30;;;;;;;11.27;56.32;97153.34;6222560;28;20308;-91
2023/05/10 07:17:30;;;;;;;8.87;2.90;;;;;;;12.18;52.59;97275.72;6223112;28;20234;-92
2023/05/10 07:20:33;;;;;;;4.97;2.43;;;;;;;13.39;53.51;97417.97;6219828;28;20242;-92
2023/05/10 07:23:35;;;;;;;3.47;2.70;;;;;;;12.56;52.90;97254.97;6219284;28;20350;-92
2023/05/10 07:26:38;;;;;;;6.13;2.43;;;;;;;13.81;53.00;97436.47;6236054;28;20276;-92
2023/05/10 07:29:40;;;;;;;2.33;2.10;;;;;;;13.91;53.86;97454.41;6239337;28;20235;-92
2023/05/10 07:32:43;;;;;;;4.30;2.23;;;;;;;14.64;49.62;97529.91;6218591;28;20619;-92
2023/05/10 07:35:45;;;;;;;2.77;2.00;;;;;;;13.91;53.40;97419.59;6218995;28;20231;-92
2023/05/10 07:38:49;;;;;;;2.53;1.77;;;;;;;12.78;46.97;97211.97;6235845;28;20235;-92
2023/05/10 07:41:51;;;;;;;3.53;1.87;;;;;;;14.87;51.10;97533.84;6236868;28;20235;-91
2023/05/10 07:44:54;;;;;;;2.30;1.63;;;;;;;14.53;52.07;97477.38;6238617;28;20853;-92
2023/05/10 07:47:57;;;;;;;1.70;1.57;;;;;;;14.94;52.36;97534.38;6227885;28;20233;-93
2023/05/10 07:50:59;;;;;;;4.30;1.60;;;;;;;14.67;51.34;97482.97;6237674;28;20581;-92
2023/05/10 07:54:03;;;;;;;2.03;1.50;;;;;;;13.60;48.16;97282.31;6220079;28;20319;-92
2023/05/10 07:57:06;;;;;;;4.33;1.53;;;;;;;12.21;46.98;97026.03;6236096;28;20199;-92
2023/05/10 08:00:09;;;;;;;2.20;1.60;;;;;;;15.16;47.33;97483.03;6232847;28;20253;-92
2023/05/10 08:03:14;;;;;;;3.80;1.90;;;;;;;15.32;45.12;97486.47;6229782;28;20214;-92
2023/05/10 08:06:18;;;;;;;1.97;1.77;;;;;;;15.45;45.28;97495.78;6237780;28;20226;-93
2023/05/10 08:09:23;;;;;;;1.43;1.30;;;;;;;15.14;48.48;97474.47;6240125;28;20231;-92
2023/05/10 08:12:26;;;;;;;4.77;2.30;;;;;;;15.61;45.87;97485.72;6239920;28;20234;-92
2023/05/10 08:15:28;;;;;;;5.23;2.47;;;;;;;15.58;48.84;97513.16;6242142;28;20304;-92
2023/05/10 08:18:30;;;;;;;3.37;2.50;;;;;;;14.56;47.99;97297.22;6242379;28;20222;-92
2023/05/10 08:21:34;;;;;;;2.40;2.20;;;;;;;15.97;48.32;97523.94;6241022;28;20273;-91
2023/05/10 08:24:38;;;;;;;3.37;2.40;;;;;;;15.50;49.55;97444.72;6215696;28;20226;-92
2023/05/10 08:27:40;;;;;;;4.03;2.17;;;;;;;16.19;49.31;97537.72;6237331;28;20257;-93
2023/05/10 08:30:44;;;;;;;5.57;2.03;;;;;;;13.60;51.57;97154.63;6240545;28;20239;-91
2023/05/10 08:33:46;;;;;;;4.50;2.90;;;;;;;15.19;48.93;97417.28;6240967;28;20227;-91
2023/05/10 08:36:48;;;;;;;3.53;2.30;;;;;;;13.22;49.79;97101.78;6225496;28;20238;-91
2023/05/10 08:39:51;;;;;;;4.00;2.10;;;;;;;12.99;50.90;97095.94;6240071;28;20612;-91
2023/05/10 08:43:02;;;;;;;6.03;2.90;;;;;;;12.79;50.77;97112.00;6225010;28;20243;-91
2023/05/10 08:46:05;;;;;;;3.07;2.20;;;;;;;14.52;50.29;97375.78;6224954;28;20235;-92
2023/05/10 08:49:08;;;;;;;5.53;3.13;;;;;;;14.05;49.80;97315.38;6225782;28;20227;-92
2023/05/10 08:52:13;;;;;;;5.30;3.10;;;;;;;13.64;48.79;97270.78;6242260;28;20241;-91
2023/05/10 08:55:16;;;;;;;6.40;2.97;;;;;;;13.79;48.16;97277.16;6229120;28;20225;-92
2023/05/10 08:58:20;;;;;;;4.60;2.80;;;;;;;14.02;48.20;97284.56;6238068;28;20227;-91
2023/05/10 09:01:24;;;;;;;4.83;3.00;;;;;;;15.72;48.81;97500.75;6227200;28;20614;-92
2023/05/10 09:04:27;;;;;;;4.27;2.63;;;;;;;14.61;49.83;97256.97;6242620;28;20242;-91
2023/05/10 09:07:31;;;;;;;3.57;2.50;;;;;;;16.40;48.41;97516.03;6242190;28;20242;-92
2023/05/10 09:10:38;;;;;;;4.73;2.60;;;;;;;16.86;47.22;97542.53;6225645;28;20246;-92
2023/05/10 09:13:42;;;;;;;3.43;2.53;;;;;;;16.98;46.96;97570.63;6238941;28;20239;-92
2023/05/10 09:16:44;;;;;;;3.00;2.70;;;;;;;15.46;46.64;97329.03;6226430;28;20246;-93
2023/05/10 09:19:47;;;;;;;4.00;2.90;;;;;;;15.19;45.76;97293.88;6225864;28;20234;-91
2023/05/10 09:22:49;;;;;;;3.33;2.80;;;;;;;16.47;49.54;97554.16;6222842;28;20247;-91
2023/05/10 09:26:05;;;;;;;8.47;2.83;;;;;;;14.74;47.96;97300.34;6244330;28;20282;-92
2023/05/10 09:29:08;;;;;;;3.97;2.47;;;;;;;13.67;48.69;97146.28;6243864;28;20231;-91
2023/05/10 09:32:10;;;;;;;5.07;2.57;;;;;;;13.80;50.73;97193.09;6234772;28;20243;-91
2023/05/10 09:35:17;;;;;;;3.63;2.87;;;;;;;16.60;49.41;97576.88;6228996;28;20238;-91
2023/05/10 09:38:20;;;;;;;5.90;3.03;;;;;;;16.19;47.77;97453.59;6230539;28;20239;-92
2023/05/10 09:41:23;;;;;;;2.40;2.20;;;;;;;14.32;46.24;97160.38;6227394;28;20230;-92
2023/05/10 09:44:26;;;;;;;3.17;2.87;;;;;;;15.14;48.20;97292.00;6226794;28;20235;-91
2023/05/10 09:47:32;;;;;;;2.47;2.27;;;;;;;14.00;49.27;97139.44;6225744;28;20246;-91
2023/05/10 09:50:34;;;;;;;4.80;2.77;;;;;;;13.73;48.38;97083.63;6241028;28;20274;-92
2023/05/10 09:53:37;;;;;;;3.10;2.50;;;;;;;15.30;46.74;97334.81;6240737;28;20238;-91
2023/05/10 09:56:40;;;;;;;4.90;2.17;;;;;;;15.15;47.02;97256.06;6238720;28;20758;-91
2023/05/10 09:59:43;;;;;;;2.90;2.57;;;;;;;14.27;46.12;97106.03;6225588;28;20223;-92
2023/05/10 10:02:54;;;;;;;4.40;2.33;;;;;;;15.17;43.81;97204.78;6241624;28;20238;-91
2023/05/10 10:05:58;;;;;;;3.23;1.90;;;;;;;15.92;51.03;97371.66;6239074;28;20349;-91
2023/05/10 10:09:04;;;;;;;3.57;1.90;;;;;;;16.28;45.31;97382.03;6223371;28;20225;-91
2023/05/10 10:12:06;;;;;;;2.83;2.13;;;;;;;16.32;45.21;97417.19;6239053;28;20222;-92
2023/05/10 10:15:10;;;;;;;1.83;1.60;;;;;;;17.03;45.19;97532.88;6238467;28;20211;-92
2023/05/10 10:18:16;;;;;;;2.13;1.60;;;;;;;17.14;47.02;97532.78;6240023;28;20211;-93
2023/05/10 10:21:19;;;;;;;3.27;1.37;;;;;;;15.16;46.25;97214.72;6224176;28;20211;-92
2023/05/10 10:24:21;;;;;;;1.67;1.30;;;;;;;14.28;46.94;97107.63;6219579;28;20321;-91
2023/05/10 10:27:42;;;;;;;1.83;1.57;;;;;;;17.62;41.95;97530.81;6223155;28;20227;-92
2023/05/10 10:30:48;;;;;;;3.37;1.40;;;;;;;17.36;44.06;97526.84;6240093;28;20295;-91
2023/05/10 10:34:06;;;;;;;4.90;1.40;;;;;;;17.07;42.93;97438.13;6225524;28;20317;-92
2023/05/10 10:37:09;;;;;;;2.90;1.80;;;;;;;16.98;41.51;97376.06;6239847;28;20235;-92
2023/05/10 10:40:29;;;;;;;1.37;1.20;;;;;;;17.83;43.03;97576.34;6241855;28;20317;-92
2023/05/10 10:43:36;;;;;;;1.93;1.00;;;;;;;16.41;41.65;97302.56;6224194;28;20307;-91
2023/05/10 10:47:09;;;;;;;1.63;1.50;;;;;;;17.87;43.49;97532.34;6221959;28;20238;-91
2023/05/10 10:50:16;;;;;;;2.97;1.00;;;;;;;16.08;43.92;97250.56;6226479;28;20235;-92
2023/05/10 10:53:18;;;;;;;1.90;1.33;;;;;;;16.14;43.55;97260.16;6225628;28;20253;-91
2023/05/10 10:56:23;;;;;;;1.60;1.20;;;;;;;16.68;43.96;97326.13;6225498;28;20235;-91
2023/05/10 10:59:28;;;;;;;1.43;1.23;;;;;;;18.01;42.23;97583.63;6223258;28;20408;-92
2023/05/10 11:02:45;;;;;;;1.33;1.23;;;;;;;14.56;42.51;97039.91;6239899;28;20750;-91
2023/05/10 11:05:49;;;;;;;1.60;1.40;;;;;;;15.34;44.07;97191.75;6242057;28;20227;-92
2023/05/10 11:08:52;;;;;;;1.70;1.07;;;;;;;17.62;43.46;97490.41;6223883;28;20255;-92
2023/05/10 11:11:55;;;;;;;1.83;1.50;;;;;;;16.04;39.04;97212.72;6216734;28;20365;-93
2023/05/10 11:14:58;;;;;;;1.20;1.10;;;;;;;16.99;40.60;97443.06;6241723;28;20242;-91
2023/05/10 11:18:17;;;;;;;2.57;1.30;;;;;;;17.70;42.50;97495.13;6223361;28;20231;-92
2023/05/10 11:21:20;;;;;;;2.07;1.30;;;;;;;17.50;40.63;97447.75;6243650;28;20235;-91
2023/05/10 11:24:27;;;;;;;2.07;1.50;;;;;;;16.06;41.35;97196.31;6226254;28;20598;-92
2023/05/10 11:27:30;;;;;;;1.73;1.50;;;;;;;15.19;40.76;97057.75;6240469;28;20306;-91
2023/05/10 11:30:32;;;;;;;2.47;1.27;;;;;;;16.77;40.43;97311.00;6238686;28;20322;-93
2023/05/10 11:33:49;;;;;;;1.97;1.47;;;;;;;18.12;41.36;97533.06;6223444;28;20227;-92
2023/05/10 11:36:53;;;;;;;5.47;1.37;;;;;;;16.75;41.44;97324.75;6222674;28;20231;-91
2023/05/10 11:39:55;;;;;;;1.77;1.23;;;;;;;16.17;40.81;97254.22;6240107;28;20230;-93
2023/05/10 11:42:58;;;;;;;1.97;1.40;;;;;;;18.14;40.52;97528.19;6242720;28;20239;-92
2023/05/10 11:46:01;;;;;;;4.33;1.50;;;;;;;16.90;39.65;97349.84;6244248;28;20257;-92
2023/05/10 11:49:07;;;;;;;3.23;1.20;;;;;;;16.16;40.65;97247.25;6225705;28;20631;-91
2023/05/10 11:52:11;;;;;;;2.87;1.30;;;;;;;17.49;43.10;97440.78;6225915;28;20227;-92
2023/05/10 11:55:13;;;;;;;5.17;1.53;;;;;;;18.38;41.73;97546.94;6241008;28;20321;-91
2023/05/10 11:58:15;;;;;;;1.90;1.27;;;;;;;16.82;40.96;97332.44;6227827;28;20226;-92
2023/05/10 12:01:18;;;;;;;1.40;1.30;;;;;;;17.48;42.21;97431.06;6242212;28;20231;-92
2023/05/10 12:04:21;;;;;;;2.53;1.47;;;;;;;14.84;42.25;97037.50;6243623;28;20253;-93
2023/05/10 12:07:23;;;;;;;1.50;1.30;;;;;;;17.18;43.22;97428.81;6221133;28;20232;-92
2023/05/10 12:10:27;;;;;;;2.00;1.50;;;;;;;17.88;43.76;97531.28;6244778;28;20234;-93
2023/05/10 12:13:29;;;;;;;3.27;1.20;;;;;;;17.50;43.47;97455.81;6242656;28;20231;-92
2023/05/10 12:16:32;;;;;;;2.20;1.30;;;;;;;17.62;41.65;97422.25;6251837;28;20572;-94
2023/05/10 12:19:39;;;;;;;1.67;1.27;;;;;;;14.59;42.52;96995.66;6255808;28;20239;-93
2023/05/10 12:22:46;;;;;;;1.40;0.90;;;;;;;17.64;41.49;97480.16;6253137;28;20400;-92
2023/05/10 12:25:48;;;;;;;1.50;1.40;;;;;;;17.84;41.51;97499.81;6251928;28;20254;-92
2023/05/10 12:28:51;;;;;;;4.03;1.20;;;;;;;17.97;40.54;97494.47;6247543;28;20713;-92
2023/05/10 12:32:11;;;;;;;2.00;1.10;;;;;;;16.11;41.12;97217.75;6228654;28;20261;-92
2023/05/10 12:35:13;;;;;;;5.67;1.33;;;;;;;16.69;42.66;97338.50;6228725;28;20258;-91
2023/05/10 12:38:32;;;;;;;1.40;1.30;;;;;;;16.81;40.58;97320.09;6250064;28;20230;-92
2023/05/10 12:41:35;;;;;;;1.30;1.20;;;;;;;14.91;39.95;97104.97;6225330;28;20244;-93
2023/05/10 12:44:37;;;;;;;2.00;1.10;;;;;;;17.46;40.33;97480.94;6240570;28;20226;-92
2023/05/10 12:47:39;;;;;;;1.53;1.10;;;;;;;16.52;40.09;97315.59;6242879;28;20234;-92
2023/05/10 12:50:46;;;;;;;4.53;1.17;;;;;;;18.17;40.46;97514.91;6224636;28;20238;-93
2023/05/10 12:53:48;;;;;;;2.77;1.17;;;;;;;17.93;39.68;97476.47;6241457;28;20234;-94
2023/05/10 12:56:50;;;;;;;1.87;1.20;;;;;;;16.40;38.79;97223.00;6233690;28;20235;-93
2023/05/10 12:59:53;;;;;;;2.93;1.10;;;;;;;18.16;40.16;97513.31;6239141;28;20249;-93
2023/05/10 13:02:56;;;;;;;1.57;1.00;;;;;;;17.97;41.04;97501.75;6237692;28;20330;-93
2023/05/10 13:05:58;;;;;;;2.17;1.30;;;;;;;17.57;40.55;97444.69;6239671;28;20826;-93
2023/05/10 13:09:01;;;;;;;1.70;1.20;;;;;;;17.62;41.15;97471.53;6239906;28;20235;-92
2023/05/10 13:12:03;;;;;;;2.53;0.90;;;;;;;16.27;40.83;97237.97;6222041;28;20250;-92
2023/05/10 13:15:09;;;;;;;2.67;1.20;;;;;;;17.51;40.06;97402.75;6239480;28;20211;-92
2023/05/10 13:18:11;;;;;;;2.23;1.40;;;;;;;16.12;41.10;97185.22;6239543;28;20219;-92
2023/05/10 13:21:13;;;;;;;1.23;1.13;;;;;;;16.51;40.07;97216.41;6240627;28;20219;-92
2023/05/10 13:24:16;;;;;;;1.77;1.13;;;;;;;17.22;39.96;97392.16;6223967;28;20210;-94
2023/05/10 13:27:19;;;;;;;3.47;1.27;;;;;;;15.21;40.35;97080.50;6228264;28;20219;-93
2023/05/10 13:30:22;;;;;;;1.00;1.00;;;;;;;15.21;40.78;97068.97;6244147;28;20479;-93
2023/05/10 13:33:25;;;;;;;2.80;1.30;;;;;;;14.76;40.24;96982.59;6227110;28;20231;-93
2023/05/10 13:36:27;;;;;;;1.40;1.07;;;;;;;16.76;40.33;97317.47;6229434;28;20227;-93
2023/05/10 13:39:33;;;;;;;1.63;1.23;;;;;;;14.43;40.87;97005.69;6226211;28;20250;-91
2023/05/10 13:42:37;;;;;;;1.70;0.93;;;;;;;17.49;41.43;97458.81;6237574;28;20235;-91
2023/05/10 13:45:39;;;;;;;1.83;0.80;;;;;;;16.96;40.15;97325.25;6242219;28;20235;-92
2023/05/10 13:48:42;;;;;;;2.80;1.00;;;;;;;14.91;39.61;97009.22;6243210;28;20239;-92
2023/05/10 13:51:44;;;;;;;1.20;1.10;;;;;;;16.84;40.19;97319.47;6241528;28;20231;-92
2023/05/10 13:54:46;;;;;;;2.27;1.30;;;;;;;16.29;39.61;97219.66;6244102;28;20365;-92
2023/05/10 13:57:48;;;;;;;1.40;1.30;;;;;;;16.49;40.44;97253.50;6224019;28;20235;-93
2023/05/10 14:00:51;;;;;;;1.47;1.00;;;;;;;18.09;41.43;97488.63;6224191;28;20318;-92
2023/05/10 14:03:53;;;;;;;4.87;1.33;;;;;;;14.99;40.12;96996.28;6241902;28;20231;-91
2023/05/10 14:06:56;;;;;;;1.47;1.17;;;;;;;14.90;40.10;96982.69;6224890;28;20227;-92
2023/05/10 14:10:00;;;;;;;2.63;1.20;;;;;;;17.96;41.63;97482.09;6241580;28;20235;-92
2023/05/10 14:13:03;;;;;;;2.10;1.40;;;;;;;16.24;41.54;97274.25;6241293;28;20242;-91
2023/05/10 14:16:05;;;;;;;5.77;1.73;;;;;;;15.26;41.82;97105.69;6241290;28;20731;-93
2023/05/10 14:19:08;;;;;;;1.10;1.00;;;;;;;15.80;43.62;97195.81;6229052;28;20588;-92
2023/05/10 14:22:11;;;;;;;1.90;1.33;;;;;;;16.89;41.04;97400.13;6230686;28;20227;-92
2023/05/10 14:25:14;;;;;;;1.40;1.30;;;;;;;14.08;42.17;97055.81;6229380;28;20754;-91
2023/05/10 14:28:18;;;;;;;1.50;1.20;;;;;;;17.25;42.55;97483.13;6234138;28;20237;-92
2023/05/10 14:31:20;;;;;;;1.57;1.17;;;;;;;17.27;42.58;97481.72;6249899;28;20235;-92